ROAH Airport Information

Runway Information
Runway 18 Length 9840 ft width 150 ft
Elevation 11 ft Threshold 138 ft Heading 178
Runway 36 Length 9840 ft Width 150 ft
Elevation 9 ft Threshold 0 ft Heading 358
Airport Frequencies
Type A/G Name CENTRAL WE Frequency 126.9 MHZ
Type ATIS Name ATIS Frequency 127.8 MHZ
Type CLD Name CLNC DEL Frequency 122.075 MHZ
Type GND Name GND Frequency 121.8 MHZ
Type TWR Name TWR Frequency 118.1 MHZ
Airport Navaids
Type VORTAC Name Naha Frequency 116500 KHZ
Type NDB Name Okinawa Frequency 308 KHZ
Airport Weather Information & NOTAM
ADDS - METARS form results

(0642 UTC 04 July 2020)
Data provider http://aviationweather.gov/metar/data/
 
METAR text: ROAH 040630Z 19009KT 9999 FEW015 SCT190 BKN/// 30/27 Q1009 RMK 1CU015 4AC190 A2980
Conditions at: ROAH (NAHA (CIV/JASDF), JP) observed 0630 UTC 04 July 2020
Temperature: 30.0°C (86°F)
Dewpoint: 27.0°C (81°F) [RH = 84%]
Pressure (altimeter): 29.79 inches Hg (1009.0 mb)
Winds: from the S (190 degrees) at 10 MPH (9 knots; 4.6 m/s)
Visibility: 6 or more miles (10+ km)
Ceiling: at least 12,000 feet AGL
Clouds: few clouds at 1500 feet AGL
scattered clouds at 19000 feet AGL
Weather: no significant weather observed at this time

METAR text: ROAH 040600Z 19011KT 9999 FEW015 BKN190 BKN/// 30/27 Q1009 RMK 1CU015 5AC190 A2981
Conditions at: ROAH (NAHA (CIV/JASDF), JP) observed 0600 UTC 04 July 2020
Temperature: 30.0°C (86°F)
Dewpoint: 27.0°C (81°F) [RH = 84%]
Pressure (altimeter): 29.79 inches Hg (1009.0 mb)
Winds: from the S (190 degrees) at 13 MPH (11 knots; 5.7 m/s)
Visibility: 6 or more miles (10+ km)
Ceiling: 19000 feet AGL
Clouds: few clouds at 1500 feet AGL
broken clouds at 19000 feet AGL
Weather: no significant weather observed at this time

Forecast for: ROAH (NAHA (CIV/JASDF), JP)
Text: TAF ROAH 040505Z 0406/0512 20010KT 9999 FEW015
Forecast period: 0600 UTC 04 July 2020 to 1200 UTC 05 July 2020
Forecast type: FROM: standard forecast or significant change
Winds: from the SSW (200 degrees) at 12 MPH (10 knots; 5.1 m/s)
Visibility: 6 or more miles 10+ km)
Ceiling: at least 12,000 feet AGL
Clouds: few clouds at 1500 feet AGL
Weather: no significant weather forecast for this period